sensor_id;sensor_type;location;lat;lon;timestamp;temperature;humidity
31765;DHT22;18338;53.240;8.798;2023-02-18T00:02:11;6.10;99.90
31765;DHT22;18338;53.240;8.798;2023-02-18T00:04:38;6.00;99.90
31765;DHT22;18338;53.240;8.798;2023-02-18T00:07:05;6.10;99.90
31765;DHT22;18338;53.240;8.798;2023-02-18T00:09:31;6.00;99.90
31765;DHT22;18338;53.240;8.798;2023-02-18T00:11:58;6.00;99.90
31765;DHT22;18338;53.240;8.798;2023-02-18T00:14:25;6.10;99.90
31765;DHT22;18338;53.240;8.798;2023-02-18T00:16:52;6.10;99.90
31765;DHT22;18338;53.240;8.798;2023-02-18T00:19:19;6.30;99.90
31765;DHT22;18338;53.240;8.798;2023-02-18T00:21:46;6.20;99.90
31765;DHT22;18338;53.240;8.798;2023-02-18T00:24:16;6.30;99.90
31765;DHT22;18338;53.240;8.798;2023-02-18T00:26:44;6.30;99.90
31765;DHT22;18338;53.240;8.798;2023-02-18T00:29:11;6.30;99.90
31765;DHT22;18338;53.240;8.798;2023-02-18T00:31:39;6.30;99.90
31765;DHT22;18338;53.240;8.798;2023-02-18T00:34:06;6.40;99.90
31765;DHT22;18338;53.240;8.798;2023-02-18T00:36:34;6.50;99.90
31765;DHT22;18338;53.240;8.798;2023-02-18T00:39:04;6.50;99.90
31765;DHT22;18338;53.240;8.798;2023-02-18T00:41:31;6.50;99.90
31765;DHT22;18338;53.240;8.798;2023-02-18T00:43:59;6.50;99.90
31765;DHT22;18338;53.240;8.798;2023-02-18T00:46:26;6.60;99.90
31765;DHT22;18338;53.240;8.798;2023-02-18T00:48:53;6.60;99.90
31765;DHT22;18338;53.240;8.798;2023-02-18T00:51:21;6.50;99.90
31765;DHT22;18338;53.240;8.798;2023-02-18T00:53:48;6.50;99.90
31765;DHT22;18338;53.240;8.798;2023-02-18T00:56:15;6.50;99.90
31765;DHT22;18338;53.240;8.798;2023-02-18T00:58:42;6.60;99.90
31765;DHT22;18338;53.240;8.798;2023-02-18T01:01:09;6.60;99.90
31765;DHT22;18338;53.240;8.798;2023-02-18T01:03:38;6.60;99.90
31765;DHT22;18338;53.240;8.798;2023-02-18T01:06:06;6.60;99.90
31765;DHT22;18338;53.240;8.798;2023-02-18T01:08:34;6.60;99.90
31765;DHT22;18338;53.240;8.798;2023-02-18T01:11:02;6.60;99.90
31765;DHT22;18338;53.240;8.798;2023-02-18T01:13:30;6.60;99.90
31765;DHT22;18338;53.240;8.798;2023-02-18T01:15:56;6.60;99.90
31765;DHT22;18338;53.240;8.798;2023-02-18T01:18:25;6.60;99.90
31765;DHT22;18338;53.240;8.798;2023-02-18T01:20:52;6.60;99.90
31765;DHT22;18338;53.240;8.798;2023-02-18T01:23:19;6.60;99.90
31765;DHT22;18338;53.240;8.798;2023-02-18T01:25:46;6.70;99.90
31765;DHT22;18338;53.240;8.798;2023-02-18T01:28:13;6.70;99.90
31765;DHT22;18338;53.240;8.798;2023-02-18T01:30:41;6.70;99.90
31765;DHT22;18338;53.240;8.798;2023-02-18T01:33:08;6.70;99.90
31765;DHT22;18338;53.240;8.798;2023-02-18T01:35:37;6.70;99.90
31765;DHT22;18338;53.240;8.798;2023-02-18T01:38:04;6.70;99.90
31765;DHT22;18338;53.240;8.798;2023-02-18T01:40:31;6.70;99.90
31765;DHT22;18338;53.240;8.798;2023-02-18T01:43:01;6.70;99.90
31765;DHT22;18338;53.240;8.798;2023-02-18T01:45:36;6.80;99.90
31765;DHT22;18338;53.240;8.798;2023-02-18T01:48:11;6.80;99.90
31765;DHT22;18338;53.240;8.798;2023-02-18T01:50:42;6.90;99.90
31765;DHT22;18338;53.240;8.798;2023-02-18T01:53:14;6.80;99.90
31765;DHT22;18338;53.240;8.798;2023-02-18T01:55:42;6.80;99.90
31765;DHT22;18338;53.240;8.798;2023-02-18T01:58:12;6.90;99.90
31765;DHT22;18338;53.240;8.798;2023-02-18T02:00:39;6.80;99.90
31765;DHT22;18338;53.240;8.798;2023-02-18T02:03:06;6.90;99.90
31765;DHT22;18338;53.240;8.798;2023-02-18T02:05:33;6.90;99.90
31765;DHT22;18338;53.240;8.798;2023-02-18T02:08:00;6.90;99.90
31765;DHT22;18338;53.240;8.798;2023-02-18T02:11:20;6.90;99.90
31765;DHT22;18338;53.240;8.798;2023-02-18T02:16:37;6.90;99.90
31765;DHT22;18338;53.240;8.798;2023-02-18T02:28:03;6.90;99.90
31765;DHT22;18338;53.240;8.798;2023-02-18T02:33:10;6.90;99.90
31765;DHT22;18338;53.240;8.798;2023-02-18T02:35:59;7.00;99.90
31765;DHT22;18338;53.240;8.798;2023-02-18T02:38:37;7.00;99.90
31765;DHT22;18338;53.240;8.798;2023-02-18T02:44:29;7.10;99.90
31765;DHT22;18338;53.240;8.798;2023-02-18T02:47:01;7.10;99.90
31765;DHT22;18338;53.240;8.798;2023-02-18T02:52:25;7.10;99.90
31765;DHT22;18338;53.240;8.798;2023-02-18T02:54:54;7.20;99.90
31765;DHT22;18338;53.240;8.798;2023-02-18T02:59:54;7.20;99.90
31765;DHT22;18338;53.240;8.798;2023-02-18T03:02:41;7.20;99.90
31765;DHT22;18338;53.240;8.798;2023-02-18T03:05:26;7.30;99.90
31765;DHT22;18338;53.240;8.798;2023-02-18T03:13:46;7.30;99.90
31765;DHT22;18338;53.240;8.798;2023-02-18T03:16:25;7.30;99.90
31765;DHT22;18338;53.240;8.798;2023-02-18T03:24:27;7.30;99.90
31765;DHT22;18338;53.240;8.798;2023-02-18T03:26:58;7.40;99.90
31765;DHT22;18338;53.240;8.798;2023-02-18T03:29:26;7.40;99.90
31765;DHT22;18338;53.240;8.798;2023-02-18T03:31:57;7.40;99.90
31765;DHT22;18338;53.240;8.798;2023-02-18T03:34:29;7.40;99.90
31765;DHT22;18338;53.240;8.798;2023-02-18T03:36:58;7.40;99.90
31765;DHT22;18338;53.240;8.798;2023-02-18T03:39:28;7.50;99.90
31765;DHT22;18338;53.240;8.798;2023-02-18T03:41:55;7.50;99.90
31765;DHT22;18338;53.240;8.798;2023-02-18T03:44:24;7.50;99.90
31765;DHT22;18338;53.240;8.798;2023-02-18T03:46:51;7.40;99.90
31765;DHT22;18338;53.240;8.798;2023-02-18T03:49:17;7.40;99.90
31765;DHT22;18338;53.240;8.798;2023-02-18T03:51:44;7.30;99.90
31765;DHT22;18338;53.240;8.798;2023-02-18T03:54:11;7.20;99.90
31765;DHT22;18338;53.240;8.798;2023-02-18T03:56:40;7.10;99.90
31765;DHT22;18338;53.240;8.798;2023-02-18T03:59:11;7.00;99.90
31765;DHT22;18338;53.240;8.798;2023-02-18T04:01:38;6.90;99.90
31765;DHT22;18338;53.240;8.798;2023-02-18T04:04:05;6.90;99.90
31765;DHT22;18338;53.240;8.798;2023-02-18T04:06:32;6.80;99.90
31765;DHT22;18338;53.240;8.798;2023-02-18T04:08:59;6.80;99.90
31765;DHT22;18338;53.240;8.798;2023-02-18T04:11:25;6.70;99.90
31765;DHT22;18338;53.240;8.798;2023-02-18T04:13:52;6.70;99.90
31765;DHT22;18338;53.240;8.798;2023-02-18T04:16:19;6.70;99.90
31765;DHT22;18338;53.240;8.798;2023-02-18T04:18:46;6.70;99.90
31765;DHT22;18338;53.240;8.798;2023-02-18T04:21:12;6.60;99.90
31765;DHT22;18338;53.240;8.798;2023-02-18T04:23:39;6.60;99.90
31765;DHT22;18338;53.240;8.798;2023-02-18T04:26:05;6.60;99.90
31765;DHT22;18338;53.240;8.798;2023-02-18T04:28:33;6.60;99.90
31765;DHT22;18338;53.240;8.798;2023-02-18T04:30:59;6.50;99.90
31765;DHT22;18338;53.240;8.798;2023-02-18T04:33:26;6.50;99.90
31765;DHT22;18338;53.240;8.798;2023-02-18T04:35:53;6.50;99.90
31765;DHT22;18338;53.240;8.798;2023-02-18T04:38:19;6.50;99.90
31765;DHT22;18338;53.240;8.798;2023-02-18T04:40:46;6.50;99.90
31765;DHT22;18338;53.240;8.798;2023-02-18T04:43:13;6.50;99.90
31765;DHT22;18338;53.240;8.798;2023-02-18T04:45:40;6.50;99.90
31765;DHT22;18338;53.240;8.798;2023-02-18T04:48:06;6.50;99.90
31765;DHT22;18338;53.240;8.798;2023-02-18T04:50:33;6.50;99.90
31765;DHT22;18338;53.240;8.798;2023-02-18T04:53:00;6.50;99.90
31765;DHT22;18338;53.240;8.798;2023-02-18T04:55:26;6.50;99.90
31765;DHT22;18338;53.240;8.798;2023-02-18T04:57:53;6.50;99.90
31765;DHT22;18338;53.240;8.798;2023-02-18T05:00:20;6.50;99.90
31765;DHT22;18338;53.240;8.798;2023-02-18T05:02:47;6.50;99.90
31765;DHT22;18338;53.240;8.798;2023-02-18T05:05:14;6.50;99.90
31765;DHT22;18338;53.240;8.798;2023-02-18T05:07:41;6.50;99.90
31765;DHT22;18338;53.240;8.798;2023-02-18T05:10:10;6.50;99.90
31765;DHT22;18338;53.240;8.798;2023-02-18T05:12:39;6.50;99.90
31765;DHT22;18338;53.240;8.798;2023-02-18T05:15:06;6.50;99.90
31765;DHT22;18338;53.240;8.798;2023-02-18T05:17:36;6.50;99.90
31765;DHT22;18338;53.240;8.798;2023-02-18T05:20:12;6.50;99.90
31765;DHT22;18338;53.240;8.798;2023-02-18T05:22:42;6.50;99.90
31765;DHT22;18338;53.240;8.798;2023-02-18T05:25:08;6.50;99.90
31765;DHT22;18338;53.240;8.798;2023-02-18T05:27:35;6.50;99.90
31765;DHT22;18338;53.240;8.798;2023-02-18T05:30:03;6.50;99.90
31765;DHT22;18338;53.240;8.798;2023-02-18T05:33:14;6.60;99.90
31765;DHT22;18338;53.240;8.798;2023-02-18T05:36:34;6.60;99.90
31765;DHT22;18338;53.240;8.798;2023-02-18T05:43:27;6.60;99.90
31765;DHT22;18338;53.240;8.798;2023-02-18T05:45:54;6.50;99.90
31765;DHT22;18338;53.240;8.798;2023-02-18T05:51:06;6.60;99.90
31765;DHT22;18338;53.240;8.798;2023-02-18T05:53:36;6.60;99.90
31765;DHT22;18338;53.240;8.798;2023-02-18T05:56:19;6.60;99.90
31765;DHT22;18338;53.240;8.798;2023-02-18T05:59:25;6.60;99.90
31765;DHT22;18338;53.240;8.798;2023-02-18T06:05:34;6.80;99.90
31765;DHT22;18338;53.240;8.798;2023-02-18T06:08:19;6.80;99.90
31765;DHT22;18338;53.240;8.798;2023-02-18T06:10:48;6.80;99.90
31765;DHT22;18338;53.240;8.798;2023-02-18T06:13:25;6.80;99.90
31765;DHT22;18338;53.240;8.798;2023-02-18T06:34:38;7.00;99.90
31765;DHT22;18338;53.240;8.798;2023-02-18T06:37:05;7.00;99.90
31765;DHT22;18338;53.240;8.798;2023-02-18T06:39:32;7.10;99.90
31765;DHT22;18338;53.240;8.798;2023-02-18T06:41:59;7.10;99.90
31765;DHT22;18338;53.240;8.798;2023-02-18T06:44:26;7.10;99.90
31765;DHT22;18338;53.240;8.798;2023-02-18T06:46:53;7.10;99.90
31765;DHT22;18338;53.240;8.798;2023-02-18T06:49:20;7.10;99.90
31765;DHT22;18338;53.240;8.798;2023-02-18T06:51:47;7.10;99.90
31765;DHT22;18338;53.240;8.798;2023-02-18T06:54:14;7.10;99.90
31765;DHT22;18338;53.240;8.798;2023-02-18T06:56:41;7.10;99.90
31765;DHT22;18338;53.240;8.798;2023-02-18T06:59:08;7.10;99.90
31765;DHT22;18338;53.240;8.798;2023-02-18T07:01:35;7.10;99.90
31765;DHT22;18338;53.240;8.798;2023-02-18T07:04:01;7.10;99.90
31765;DHT22;18338;53.240;8.798;2023-02-18T07:06:28;7.10;99.90
31765;DHT22;18338;53.240;8.798;2023-02-18T07:08:55;7.20;99.90
31765;DHT22;18338;53.240;8.798;2023-02-18T07:11:22;7.20;99.90
31765;DHT22;18338;53.240;8.798;2023-02-18T07:13:49;7.20;99.90
31765;DHT22;18338;53.240;8.798;2023-02-18T07:16:16;7.20;99.90
31765;DHT22;18338;53.240;8.798;2023-02-18T07:18:43;7.20;99.90
31765;DHT22;18338;53.240;8.798;2023-02-18T07:21:10;7.20;99.90
31765;DHT22;18338;53.240;8.798;2023-02-18T07:23:37;7.20;99.90
31765;DHT22;18338;53.240;8.798;2023-02-18T07:45:25;7.40;99.90
31765;DHT22;18338;53.240;8.798;2023-02-18T07:47:52;7.40;99.90
31765;DHT22;18338;53.240;8.798;2023-02-18T07:50:18;7.50;99.90
31765;DHT22;18338;53.240;8.798;2023-02-18T07:52:45;7.50;99.90
31765;DHT22;18338;53.240;8.798;2023-02-18T07:55:12;7.50;99.90
31765;DHT22;18338;53.240;8.798;2023-02-18T07:57:39;7.50;99.90
31765;DHT22;18338;53.240;8.798;2023-02-18T08:00:23;7.60;99.90
31765;DHT22;18338;53.240;8.798;2023-02-18T08:02:56;7.60;99.90
31765;DHT22;18338;53.240;8.798;2023-02-18T08:05:30;7.70;99.90
31765;DHT22;18338;53.240;8.798;2023-02-18T08:07:57;7.70;99.90
31765;DHT22;18338;53.240;8.798;2023-02-18T08:10:24;7.70;99.90
31765;DHT22;18338;53.240;8.798;2023-02-18T08:12:50;7.80;99.90
31765;DHT22;18338;53.240;8.798;2023-02-18T08:15:17;7.80;99.90
31765;DHT22;18338;53.240;8.798;2023-02-18T08:17:44;7.80;99.90
31765;DHT22;18338;53.240;8.798;2023-02-18T08:20:11;7.90;99.90
31765;DHT22;18338;53.240;8.798;2023-02-18T08:22:38;7.90;99.90
31765;DHT22;18338;53.240;8.798;2023-02-18T08:25:05;8.00;99.90
31765;DHT22;18338;53.240;8.798;2023-02-18T08:27:32;8.20;99.90
31765;DHT22;18338;53.240;8.798;2023-02-18T08:29:59;8.30;99.90
31765;DHT22;18338;53.240;8.798;2023-02-18T08:32:27;8.50;99.90
31765;DHT22;18338;53.240;8.798;2023-02-18T08:34:55;8.70;99.90
31765;DHT22;18338;53.240;8.798;2023-02-18T08:37:21;8.80;99.90
31765;DHT22;18338;53.240;8.798;2023-02-18T08:39:49;9.00;99.90
31765;DHT22;18338;53.240;8.798;2023-02-18T08:42:16;9.20;99.90
31765;DHT22;18338;53.240;8.798;2023-02-18T08:44:42;9.30;99.90
31765;DHT22;18338;53.240;8.798;2023-02-18T08:47:10;9.40;99.90
31765;DHT22;18338;53.240;8.798;2023-02-18T08:49:57;9.50;99.90
31765;DHT22;18338;53.240;8.798;2023-02-18T08:52:25;9.60;99.90
31765;DHT22;18338;53.240;8.798;2023-02-18T08:54:51;9.80;99.90
31765;DHT22;18338;53.240;8.798;2023-02-18T08:57:18;9.80;99.90
31765;DHT22;18338;53.240;8.798;2023-02-18T08:59:45;9.90;99.90
31765;DHT22;18338;53.240;8.798;2023-02-18T09:02:13;10.00;99.90
31765;DHT22;18338;53.240;8.798;2023-02-18T09:04:43;10.10;99.90
31765;DHT22;18338;53.240;8.798;2023-02-18T09:07:10;10.20;99.90
31765;DHT22;18338;53.240;8.798;2023-02-18T09:12:18;10.40;99.90
31765;DHT22;18338;53.240;8.798;2023-02-18T09:14:48;10.50;99.90
31765;DHT22;18338;53.240;8.798;2023-02-18T09:17:15;10.50;99.90
31765;DHT22;18338;53.240;8.798;2023-02-18T09:19:42;10.50;99.90
31765;DHT22;18338;53.240;8.798;2023-02-18T09:22:08;10.60;99.90
31765;DHT22;18338;53.240;8.798;2023-02-18T09:24:39;10.60;99.90
31765;DHT22;18338;53.240;8.798;2023-02-18T09:27:06;10.70;99.90
31765;DHT22;18338;53.240;8.798;2023-02-18T09:29:38;10.70;99.90
31765;DHT22;18338;53.240;8.798;2023-02-18T09:32:07;10.70;99.90
31765;DHT22;18338;53.240;8.798;2023-02-18T09:34:35;10.70;99.90
31765;DHT22;18338;53.240;8.798;2023-02-18T09:37:03;10.70;99.90
31765;DHT22;18338;53.240;8.798;2023-02-18T09:39:30;10.70;99.90
31765;DHT22;18338;53.240;8.798;2023-02-18T09:42:01;10.70;99.90
31765;DHT22;18338;53.240;8.798;2023-02-18T09:44:44;10.70;99.90
31765;DHT22;18338;53.240;8.798;2023-02-18T09:47:30;10.80;99.90
31765;DHT22;18338;53.240;8.798;2023-02-18T09:50:07;10.80;99.90
31765;DHT22;18338;53.240;8.798;2023-02-18T09:52:36;10.90;99.90
31765;DHT22;18338;53.240;8.798;2023-02-18T09:55:23;10.80;99.90
31765;DHT22;18338;53.240;8.798;2023-02-18T09:57:58;10.90;99.90
31765;DHT22;18338;53.240;8.798;2023-02-18T10:00:53;10.90;99.90
31765;DHT22;18338;53.240;8.798;2023-02-18T10:03:24;10.90;99.90
31765;DHT22;18338;53.240;8.798;2023-02-18T10:05:58;10.90;99.90
31765;DHT22;18338;53.240;8.798;2023-02-18T10:08:28;10.90;99.90
31765;DHT22;18338;53.240;8.798;2023-02-18T10:10:55;10.90;99.90
31765;DHT22;18338;53.240;8.798;2023-02-18T10:13:26;10.90;99.90
31765;DHT22;18338;53.240;8.798;2023-02-18T10:15:54;10.90;99.90
31765;DHT22;18338;53.240;8.798;2023-02-18T10:18:37;10.90;99.90
31765;DHT22;18338;53.240;8.798;2023-02-18T10:21:10;10.90;99.90
31765;DHT22;18338;53.240;8.798;2023-02-18T10:23:41;10.90;99.90
31765;DHT22;18338;53.240;8.798;2023-02-18T10:26:15;10.80;99.90
31765;DHT22;18338;53.240;8.798;2023-02-18T10:28:43;10.80;99.90
31765;DHT22;18338;53.240;8.798;2023-02-18T10:31:19;10.80;99.90
31765;DHT22;18338;53.240;8.798;2023-02-18T10:36:44;10.80;99.90
31765;DHT22;18338;53.240;8.798;2023-02-18T10:42:31;10.70;99.90
31765;DHT22;18338;53.240;8.798;2023-02-18T10:45:11;10.70;99.90
31765;DHT22;18338;53.240;8.798;2023-02-18T10:50:18;10.70;99.90
31765;DHT22;18338;53.240;8.798;2023-02-18T10:52:51;10.70;99.90
31765;DHT22;18338;53.240;8.798;2023-02-18T10:55:34;10.70;99.90
31765;DHT22;18338;53.240;8.798;2023-02-18T10:58:01;10.70;99.90
31765;DHT22;18338;53.240;8.798;2023-02-18T11:00:34;10.70;99.90
31765;DHT22;18338;53.240;8.798;2023-02-18T11:05:37;10.70;99.90
31765;DHT22;18338;53.240;8.798;2023-02-18T11:08:08;10.70;99.90
31765;DHT22;18338;53.240;8.798;2023-02-18T11:10:39;10.70;99.90
31765;DHT22;18338;53.240;8.798;2023-02-18T11:13:09;10.70;99.90
31765;DHT22;18338;53.240;8.798;2023-02-18T11:15:53;10.60;99.90
31765;DHT22;18338;53.240;8.798;2023-02-18T11:21:34;10.60;99.90
31765;DHT22;18338;53.240;8.798;2023-02-18T11:24:08;10.60;99.90
31765;DHT22;18338;53.240;8.798;2023-02-18T11:26:38;10.70;99.90
31765;DHT22;18338;53.240;8.798;2023-02-18T11:29:19;10.70;99.90
31765;DHT22;18338;53.240;8.798;2023-02-18T11:31:48;10.60;99.90
31765;DHT22;18338;53.240;8.798;2023-02-18T11:36:45;10.60;99.90
31765;DHT22;18338;53.240;8.798;2023-02-18T11:39:26;10.60;99.90
31765;DHT22;18338;53.240;8.798;2023-02-18T11:42:00;10.60;99.90
31765;DHT22;18338;53.240;8.798;2023-02-18T11:44:34;10.60;99.90
31765;DHT22;18338;53.240;8.798;2023-02-18T11:47:21;10.60;99.90
31765;DHT22;18338;53.240;8.798;2023-02-18T11:50:21;10.70;99.90
31765;DHT22;18338;53.240;8.798;2023-02-18T11:52:49;10.70;99.90
31765;DHT22;18338;53.240;8.798;2023-02-18T11:55:24;10.60;99.90
31765;DHT22;18338;53.240;8.798;2023-02-18T11:57:59;10.70;99.90
31765;DHT22;18338;53.240;8.798;2023-02-18T12:00:47;10.60;99.90
31765;DHT22;18338;53.240;8.798;2023-02-18T12:03:43;10.60;99.90
31765;DHT22;18338;53.240;8.798;2023-02-18T12:06:38;10.70;99.90
31765;DHT22;18338;53.240;8.798;2023-02-18T12:09:29;10.70;99.90
31765;DHT22;18338;53.240;8.798;2023-02-18T12:11:57;10.70;99.90
31765;DHT22;18338;53.240;8.798;2023-02-18T12:14:26;10.70;99.90
31765;DHT22;18338;53.240;8.798;2023-02-18T12:22:40;10.60;99.90
31765;DHT22;18338;53.240;8.798;2023-02-18T12:36:19;10.60;99.90
31765;DHT22;18338;53.240;8.798;2023-02-18T12:42:06;10.60;99.90
31765;DHT22;18338;53.240;8.798;2023-02-18T12:45:03;10.70;99.90
31765;DHT22;18338;53.240;8.798;2023-02-18T12:53:57;10.60;99.90
31765;DHT22;18338;53.240;8.798;2023-02-18T12:56:40;10.70;99.90
31765;DHT22;18338;53.240;8.798;2023-02-18T13:10:33;10.60;99.90
31765;DHT22;18338;53.240;8.798;2023-02-18T13:13:19;10.70;99.90
31765;DHT22;18338;53.240;8.798;2023-02-18T13:15:57;10.70;99.90
31765;DHT22;18338;53.240;8.798;2023-02-18T13:18:34;10.80;99.90
31765;DHT22;18338;53.240;8.798;2023-02-18T13:21:11;10.90;99.90
31765;DHT22;18338;53.240;8.798;2023-02-18T13:26:17;10.90;99.90
31765;DHT22;18338;53.240;8.798;2023-02-18T13:29:26;11.00;99.90
31765;DHT22;18338;53.240;8.798;2023-02-18T13:32:00;11.00;99.90
31765;DHT22;18338;53.240;8.798;2023-02-18T13:34:33;10.90;99.90
31765;DHT22;18338;53.240;8.798;2023-02-18T13:39:56;10.90;99.90
31765;DHT22;18338;53.240;8.798;2023-02-18T13:47:47;10.70;99.90
31765;DHT22;18338;53.240;8.798;2023-02-18T13:55:55;10.70;99.90
31765;DHT22;18338;53.240;8.798;2023-02-18T13:58:36;10.70;99.90
31765;DHT22;18338;53.240;8.798;2023-02-18T14:01:19;10.60;99.90
31765;DHT22;18338;53.240;8.798;2023-02-18T14:08:45;10.60;99.90
31765;DHT22;18338;53.240;8.798;2023-02-18T14:13:49;10.50;99.90
31765;DHT22;18338;53.240;8.798;2023-02-18T14:16:18;10.50;99.90
31765;DHT22;18338;53.240;8.798;2023-02-18T14:23:54;10.50;99.90
31765;DHT22;18338;53.240;8.798;2023-02-18T14:26:32;10.50;99.90
31765;DHT22;18338;53.240;8.798;2023-02-18T14:29:04;10.60;99.90
31765;DHT22;18338;53.240;8.798;2023-02-18T14:31:45;10.60;99.90
31765;DHT22;18338;53.240;8.798;2023-02-18T14:43:17;10.50;99.90
31765;DHT22;18338;53.240;8.798;2023-02-18T14:51:30;10.40;99.90
31765;DHT22;18338;53.240;8.798;2023-02-18T14:54:11;10.50;99.90
31765;DHT22;18338;53.240;8.798;2023-02-18T14:57:18;10.40;99.90
31765;DHT22;18338;53.240;8.798;2023-02-18T15:02:49;10.60;99.90
31765;DHT22;18338;53.240;8.798;2023-02-18T15:05:18;10.60;99.90
31765;DHT22;18338;53.240;8.798;2023-02-18T15:08:01;10.60;99.90
31765;DHT22;18338;53.240;8.798;2023-02-18T15:10:42;10.60;99.90
31765;DHT22;18338;53.240;8.798;2023-02-18T15:13:24;10.50;99.90
31765;DHT22;18338;53.240;8.798;2023-02-18T15:16:01;10.60;99.90
31765;DHT22;18338;53.240;8.798;2023-02-18T15:18:39;10.60;99.90
31765;DHT22;18338;53.240;8.798;2023-02-18T15:21:12;10.50;99.90
31765;DHT22;18338;53.240;8.798;2023-02-18T15:23:42;10.50;99.90
31765;DHT22;18338;53.240;8.798;2023-02-18T15:26:14;10.40;99.90
31765;DHT22;18338;53.240;8.798;2023-02-18T15:28:53;10.40;99.90
31765;DHT22;18338;53.240;8.798;2023-02-18T15:31:25;10.40;99.90
31765;DHT22;18338;53.240;8.798;2023-02-18T15:33:53;10.40;99.90
31765;DHT22;18338;53.240;8.798;2023-02-18T15:36:20;10.30;99.90
31765;DHT22;18338;53.240;8.798;2023-02-18T15:38:47;10.30;99.90
31765;DHT22;18338;53.240;8.798;2023-02-18T15:41:15;10.30;99.90
31765;DHT22;18338;53.240;8.798;2023-02-18T15:46:20;10.00;99.90
31765;DHT22;18338;53.240;8.798;2023-02-18T15:48:49;9.90;99.90
31765;DHT22;18338;53.240;8.798;2023-02-18T15:51:24;9.90;99.90
31765;DHT22;18338;53.240;8.798;2023-02-18T15:53:54;9.90;99.90
31765;DHT22;18338;53.240;8.798;2023-02-18T15:56:34;9.90;99.90
31765;DHT22;18338;53.240;8.798;2023-02-18T16:01:41;9.90;99.90
31765;DHT22;18338;53.240;8.798;2023-02-18T16:04:12;9.80;99.90
31765;DHT22;18338;53.240;8.798;2023-02-18T16:06:48;9.90;99.90
31765;DHT22;18338;53.240;8.798;2023-02-18T16:09:23;9.90;99.90
31765;DHT22;18338;53.240;8.798;2023-02-18T16:12:29;9.90;99.90
31765;DHT22;18338;53.240;8.798;2023-02-18T16:14:57;9.80;99.90
31765;DHT22;18338;53.240;8.798;2023-02-18T16:17:27;9.80;99.90
31765;DHT22;18338;53.240;8.798;2023-02-18T16:19:57;9.80;99.90
31765;DHT22;18338;53.240;8.798;2023-02-18T16:25:00;9.80;99.90
31765;DHT22;18338;53.240;8.798;2023-02-18T16:30:19;9.80;99.90
31765;DHT22;18338;53.240;8.798;2023-02-18T16:32:47;9.80;99.90
31765;DHT22;18338;53.240;8.798;2023-02-18T16:35:14;9.80;99.90
31765;DHT22;18338;53.240;8.798;2023-02-18T16:37:42;9.80;99.90
31765;DHT22;18338;53.240;8.798;2023-02-18T16:40:37;9.70;99.90
31765;DHT22;18338;53.240;8.798;2023-02-18T16:43:16;9.60;99.90
31765;DHT22;18338;53.240;8.798;2023-02-18T16:45:48;9.60;99.90
31765;DHT22;18338;53.240;8.798;2023-02-18T16:48:27;9.60;99.90
31765;DHT22;18338;53.240;8.798;2023-02-18T16:50:58;9.50;99.90
31765;DHT22;18338;53.240;8.798;2023-02-18T16:53:26;9.50;99.90
31765;DHT22;18338;53.240;8.798;2023-02-18T16:55:52;9.50;99.90
31765;DHT22;18338;53.240;8.798;2023-02-18T16:58:19;9.50;99.90
31765;DHT22;18338;53.240;8.798;2023-02-18T17:00:46;9.40;99.90
31765;DHT22;18338;53.240;8.798;2023-02-18T17:03:15;9.30;99.90
31765;DHT22;18338;53.240;8.798;2023-02-18T17:05:41;9.20;99.90
31765;DHT22;18338;53.240;8.798;2023-02-18T17:08:23;9.20;99.90
31765;DHT22;18338;53.240;8.798;2023-02-18T17:10:53;9.20;99.90
31765;DHT22;18338;53.240;8.798;2023-02-18T17:13:26;9.20;99.90
31765;DHT22;18338;53.240;8.798;2023-02-18T17:15:54;9.10;99.90
31765;DHT22;18338;53.240;8.798;2023-02-18T17:18:21;9.00;99.90
31765;DHT22;18338;53.240;8.798;2023-02-18T17:20:50;9.00;99.90
31765;DHT22;18338;53.240;8.798;2023-02-18T17:23:20;9.00;99.90
31765;DHT22;18338;53.240;8.798;2023-02-18T17:25:48;9.00;99.90
31765;DHT22;18338;53.240;8.798;2023-02-18T17:28:15;8.90;99.90
31765;DHT22;18338;53.240;8.798;2023-02-18T17:30:47;8.90;99.90
31765;DHT22;18338;53.240;8.798;2023-02-18T17:33:16;8.90;99.90
31765;DHT22;18338;53.240;8.798;2023-02-18T17:35:43;8.90;99.90
31765;DHT22;18338;53.240;8.798;2023-02-18T17:38:15;9.00;99.90
31765;DHT22;18338;53.240;8.798;2023-02-18T17:40:42;9.00;99.90
31765;DHT22;18338;53.240;8.798;2023-02-18T17:43:14;9.00;99.90
31765;DHT22;18338;53.240;8.798;2023-02-18T17:45:53;8.90;99.90
31765;DHT22;18338;53.240;8.798;2023-02-18T17:48:20;8.90;99.90
31765;DHT22;18338;53.240;8.798;2023-02-18T17:50:47;8.70;99.90
31765;DHT22;18338;53.240;8.798;2023-02-18T17:53:15;8.60;99.90
31765;DHT22;18338;53.240;8.798;2023-02-18T17:55:44;8.60;99.90
31765;DHT22;18338;53.240;8.798;2023-02-18T17:58:11;8.40;99.90
31765;DHT22;18338;53.240;8.798;2023-02-18T18:00:42;8.30;99.90
31765;DHT22;18338;53.240;8.798;2023-02-18T18:03:11;8.30;99.90
31765;DHT22;18338;53.240;8.798;2023-02-18T18:05:41;8.30;99.90
31765;DHT22;18338;53.240;8.798;2023-02-18T18:08:08;8.30;99.90
31765;DHT22;18338;53.240;8.798;2023-02-18T18:10:39;8.20;99.90
31765;DHT22;18338;53.240;8.798;2023-02-18T18:13:10;8.20;99.90
31765;DHT22;18338;53.240;8.798;2023-02-18T18:15:40;8.20;99.90
31765;DHT22;18338;53.240;8.798;2023-02-18T18:18:09;8.10;99.90
31765;DHT22;18338;53.240;8.798;2023-02-18T18:20:37;8.10;99.90
31765;DHT22;18338;53.240;8.798;2023-02-18T18:23:06;8.10;99.90
31765;DHT22;18338;53.240;8.798;2023-02-18T18:25:38;8.00;99.90
31765;DHT22;18338;53.240;8.798;2023-02-18T18:28:06;8.00;99.90
31765;DHT22;18338;53.240;8.798;2023-02-18T18:30:38;8.00;99.90
31765;DHT22;18338;53.240;8.798;2023-02-18T18:33:19;7.90;99.90
31765;DHT22;18338;53.240;8.798;2023-02-18T18:35:47;7.90;99.90
31765;DHT22;18338;53.240;8.798;2023-02-18T18:38:16;7.90;99.90
31765;DHT22;18338;53.240;8.798;2023-02-18T18:40:44;7.80;99.90
31765;DHT22;18338;53.240;8.798;2023-02-18T18:43:18;7.80;99.90
31765;DHT22;18338;53.240;8.798;2023-02-18T18:45:46;7.70;99.90
31765;DHT22;18338;53.240;8.798;2023-02-18T18:48:14;7.70;99.90
31765;DHT22;18338;53.240;8.798;2023-02-18T18:50:41;7.60;99.90
31765;DHT22;18338;53.240;8.798;2023-02-18T18:53:29;7.60;99.90
31765;DHT22;18338;53.240;8.798;2023-02-18T18:55:59;7.50;99.90
31765;DHT22;18338;53.240;8.798;2023-02-18T18:58:26;7.50;99.90
31765;DHT22;18338;53.240;8.798;2023-02-18T19:00:58;7.40;99.90
31765;DHT22;18338;53.240;8.798;2023-02-18T19:03:27;7.40;99.90
31765;DHT22;18338;53.240;8.798;2023-02-18T19:05:56;7.30;99.90
31765;DHT22;18338;53.240;8.798;2023-02-18T19:08:24;7.30;99.90
31765;DHT22;18338;53.240;8.798;2023-02-18T19:10:55;7.30;99.90
31765;DHT22;18338;53.240;8.798;2023-02-18T19:13:25;7.30;99.90
31765;DHT22;18338;53.240;8.798;2023-02-18T19:18:40;7.20;99.90
31765;DHT22;18338;53.240;8.798;2023-02-18T19:21:07;7.20;99.90
31765;DHT22;18338;53.240;8.798;2023-02-18T19:23:34;7.10;99.90
31765;DHT22;18338;53.240;8.798;2023-02-18T19:26:02;7.10;99.90
31765;DHT22;18338;53.240;8.798;2023-02-18T19:28:29;7.10;99.90
31765;DHT22;18338;53.240;8.798;2023-02-18T19:30:56;7.10;99.90